createdAt,value
2023-04-10T00:00:26.063Z,25.07
2023-04-10T00:06:08.722Z,24.87
2023-04-10T00:15:34.365Z,24.75
2023-04-10T00:22:01.603Z,24.44
2023-04-10T00:27:10.654Z,24.32
2023-04-10T00:33:05.404Z,24.19
2023-04-10T00:38:32.202Z,24.04
2023-04-10T00:43:58.967Z,23.95
2023-04-10T00:49:46.329Z,23.81
2023-04-10T00:55:28.709Z,23.64
2023-04-10T01:01:11.242Z,23.36
2023-04-10T01:06:53.737Z,23.26
2023-04-10T01:12:50.503Z,22.96
2023-04-10T01:18:10.910Z,22.67
2023-04-10T01:23:18.907Z,22.50
2023-04-10T01:28:26.472Z,22.26
2023-04-10T01:33:33.997Z,21.96
2023-04-10T01:38:41.306Z,21.75
2023-04-10T01:43:48.476Z,21.66
2023-04-10T01:48:55.642Z,21.51
2023-04-10T01:54:04.558Z,21.44
2023-04-10T01:59:10.505Z,21.33
2023-04-10T02:04:18.160Z,21.29
2023-04-10T02:09:48.088Z,21.23
2023-04-10T02:15:18.016Z,21.13
2023-04-10T02:21:00.309Z,21.00
2023-04-10T02:26:07.682Z,20.90
2023-04-10T02:31:14.995Z,20.78
2023-04-10T02:36:22.591Z,20.72
2023-04-10T02:41:30.197Z,20.66
2023-04-10T02:46:38.130Z,20.57
2023-04-10T02:51:51.738Z,20.51
2023-04-10T02:57:10.136Z,20.43
2023-04-10T03:02:28.963Z,20.37
2023-04-10T03:07:36.314Z,20.31
2023-04-10T03:12:43.964Z,20.28
2023-04-10T03:23:17.968Z,20.30
2023-04-10T03:28:27.231Z,20.25
2023-04-10T03:33:39.789Z,20.13
2023-04-10T03:39:22.192Z,20.31
2023-04-10T03:45:04.661Z,20.43
2023-04-10T03:50:11.982Z,20.43
2023-04-10T03:55:21.368Z,20.39
2023-04-10T04:00:43.889Z,20.21
2023-04-10T04:05:51.238Z,20.07
2023-04-10T04:11:33.844Z,19.80
2023-04-10T04:17:16.380Z,19.72
2023-04-10T04:22:23.728Z,19.72
2023-04-10T04:27:31.457Z,19.63
2023-04-10T04:32:57.861Z,19.61
2023-04-10T04:38:11.837Z,19.53
2023-04-10T04:43:22.607Z,19.50
2023-04-10T04:48:34.894Z,19.52
2023-04-10T04:54:22.743Z,19.89
2023-04-10T05:00:05.315Z,20.16
2023-04-10T05:05:12.811Z,20.31
2023-04-10T05:11:00.021Z,20.36
2023-04-10T05:16:07.813Z,20.42
2023-04-10T05:21:21.378Z,20.43
2023-04-10T05:26:28.927Z,20.45
2023-04-10T05:32:11.450Z,20.39
2023-04-10T05:37:18.761Z,20.40
2023-04-10T05:42:26.157Z,20.32
2023-04-10T05:48:08.745Z,20.24
2023-04-10T05:53:58.145Z,20.21
2023-04-10T05:58:33.037Z,20.07
2023-04-10T06:03:46.716Z,19.90
2023-04-10T06:09:14.626Z,19.70
2023-04-10T06:14:18.629Z,19.53
2023-04-10T06:19:21.013Z,19.50
2023-04-10T06:24:43.745Z,19.60
2023-04-10T06:29:47.406Z,19.69
2023-04-10T06:34:54.935Z,19.72
2023-04-10T06:40:02.643Z,19.66
2023-04-10T06:45:09.918Z,19.76
2023-04-10T06:50:53.091Z,19.99
2023-04-10T06:56:35.709Z,20.14
2023-04-10T07:02:18.483Z,20.22
2023-04-10T07:07:25.653Z,20.28
2023-04-10T07:13:08.157Z,20.33
2023-04-10T07:18:51.179Z,20.34
2023-04-10T07:24:33.752Z,20.36
2023-04-10T07:29:47.344Z,20.42
2023-04-10T07:35:16.208Z,20.43
2023-04-10T07:40:08.490Z,20.46
2023-04-10T07:50:28.277Z,20.46
2023-04-10T07:51:11.187Z,20.47
2023-04-10T08:02:10.464Z,20.48
2023-04-10T08:07:18.194Z,20.47
2023-04-10T08:12:26.418Z,20.47
2023-04-10T08:18:08.918Z,20.47
2023-04-10T08:23:51.375Z,20.45
2023-04-10T08:34:34.916Z,20.45
2023-04-10T08:41:38.681Z,20.46
2023-04-10T08:45:21.866Z,20.46
2023-04-10T08:50:39.207Z,20.45
2023-04-10T08:56:41.826Z,20.39
2023-04-10T09:01:57.627Z,20.45
2023-04-10T09:07:40.029Z,20.45
2023-04-10T09:13:22.529Z,20.42
2023-04-10T09:19:06.653Z,20.46
2023-04-10T09:24:21.646Z,20.47
2023-04-10T09:30:06.981Z,20.41
2023-04-10T09:34:58.378Z,20.51
2023-04-10T09:40:55.797Z,20.40
2023-04-10T09:46:43.827Z,20.44
2023-04-10T09:51:51.049Z,20.49
2023-04-10T09:56:58.258Z,20.59
2023-04-10T10:02:05.552Z,20.70
2023-04-10T10:07:12.629Z,20.86
2023-04-10T10:12:19.819Z,21.02
2023-04-10T10:17:27.044Z,21.18
2023-04-10T10:22:34.182Z,21.33
2023-04-10T10:27:41.343Z,21.49
2023-04-10T10:32:48.732Z,21.72
2023-04-10T10:37:55.753Z,21.88
2023-04-10T10:43:02.963Z,21.99
2023-04-10T10:48:10.310Z,22.09
2023-04-10T10:53:17.423Z,22.22
2023-04-10T10:58:24.604Z,22.32
2023-04-10T11:03:31.948Z,22.41
2023-04-10T11:08:39.084Z,22.55
2023-04-10T11:13:46.367Z,22.76
2023-04-10T11:19:02.826Z,22.83
2023-04-10T11:24:00.807Z,22.94
2023-04-10T11:29:07.914Z,23.06
2023-04-10T11:34:15.107Z,23.13
2023-04-10T11:39:22.294Z,23.15
2023-04-10T11:44:29.477Z,23.22
2023-04-10T11:49:36.681Z,23.34
2023-04-10T11:54:43.828Z,23.36
2023-04-10T11:59:51.017Z,23.42
2023-04-10T12:04:58.411Z,23.53
2023-04-10T12:10:05.582Z,23.64
2023-04-10T12:15:12.768Z,23.51
2023-04-10T12:20:19.986Z,23.49
2023-04-10T12:25:27.209Z,23.45
2023-04-10T12:30:34.317Z,23.41
2023-04-10T12:35:41.605Z,23.42
2023-04-10T12:40:48.692Z,23.45
2023-04-10T12:45:56.938Z,23.35
2023-04-10T12:51:03.093Z,23.36
2023-04-10T12:56:10.518Z,23.44
2023-04-10T13:01:17.789Z,23.42
2023-04-10T13:06:24.974Z,23.37
2023-04-10T13:11:35.825Z,23.36
2023-04-10T13:16:43.021Z,23.46
2023-04-10T13:21:50.221Z,23.45
2023-04-10T13:26:57.399Z,23.45
2023-04-10T13:32:04.663Z,23.46
2023-04-10T13:37:11.952Z,23.40
2023-04-10T13:42:19.153Z,23.32
2023-04-10T13:47:26.496Z,23.35
2023-04-10T13:52:33.758Z,23.38
2023-04-10T13:57:41.363Z,23.40
2023-04-10T14:02:48.321Z,23.37
2023-04-10T14:07:55.555Z,23.40
2023-04-10T14:13:03.149Z,23.58
2023-04-10T14:18:10.422Z,23.75
2023-04-10T14:23:17.649Z,23.83
2023-04-10T14:28:24.805Z,24.00
2023-04-10T14:33:32.040Z,24.04
2023-04-10T14:38:39.202Z,24.04
2023-04-10T14:43:46.454Z,24.05
2023-04-10T14:48:53.749Z,24.04
2023-04-10T14:54:00.961Z,24.04
2023-04-10T14:59:08.132Z,23.92
2023-04-10T15:04:15.460Z,23.82
2023-04-10T15:09:22.724Z,23.83
2023-04-10T15:14:29.872Z,23.82
2023-04-10T15:19:37.268Z,23.77
2023-04-10T15:24:50.596Z,23.84
2023-04-10T15:29:51.635Z,23.81
2023-04-10T15:34:58.937Z,23.80
2023-04-10T15:40:06.350Z,23.79
2023-04-10T15:45:13.395Z,23.79
2023-04-10T15:50:20.617Z,23.73
2023-04-10T15:55:27.942Z,23.72
2023-04-10T16:00:36.758Z,23.70
2023-04-10T16:05:43.963Z,23.67
2023-04-10T16:10:51.296Z,23.65
2023-04-10T16:15:58.582Z,23.66
2023-04-10T16:21:05.977Z,23.65
2023-04-10T16:26:13.344Z,23.59
2023-04-10T16:31:20.606Z,23.66
2023-04-10T16:36:27.764Z,23.71
2023-04-10T16:41:35.080Z,23.73
2023-04-10T16:46:42.377Z,23.74
2023-04-10T16:51:49.621Z,23.76
2023-04-10T16:56:56.846Z,23.77
2023-04-10T17:02:04.065Z,23.82
2023-04-10T17:07:11.272Z,23.81
2023-04-10T17:12:18.750Z,23.83
2023-04-10T17:17:26.115Z,23.82
2023-04-10T17:22:33.216Z,23.83
2023-04-10T17:27:40.793Z,23.79
2023-04-10T17:32:47.711Z,23.83
2023-04-10T17:37:54.880Z,23.85
2023-04-10T17:43:02.090Z,23.90
2023-04-10T17:48:09.357Z,23.98
2023-04-10T17:53:16.595Z,24.09
2023-04-10T17:58:24.056Z,24.13
2023-04-10T18:03:31.292Z,24.19
2023-04-10T18:08:38.709Z,24.28
2023-04-10T18:13:46.128Z,24.34
2023-04-10T18:18:53.882Z,24.40
2023-04-10T18:24:00.962Z,24.40
2023-04-10T18:29:08.165Z,24.42
2023-04-10T18:34:15.332Z,24.45
2023-04-10T18:39:22.653Z,24.49
2023-04-10T18:44:31.251Z,24.54
2023-04-10T18:49:37.310Z,24.60
2023-04-10T18:54:44.510Z,24.62
2023-04-10T18:59:51.843Z,24.68
2023-04-10T19:04:59.175Z,24.65
2023-04-10T19:10:06.734Z,24.75
2023-04-10T19:15:14.149Z,24.75
2023-04-10T19:20:50.587Z,24.77
2023-04-10T19:25:29.102Z,24.79
2023-04-10T19:30:36.673Z,24.74
2023-04-10T19:35:44.574Z,24.72
2023-04-10T19:40:52.997Z,24.72
2023-04-10T19:46:00.352Z,24.68
2023-04-10T19:51:07.836Z,24.71
2023-04-10T19:56:15.440Z,24.69
2023-04-10T20:01:22.868Z,24.74
2023-04-10T20:06:30.017Z,24.84
2023-04-10T20:11:37.351Z,24.84
2023-04-10T20:16:44.585Z,24.84
2023-04-10T20:21:51.840Z,24.87
2023-04-10T20:26:59.111Z,24.89
2023-04-10T20:32:06.453Z,24.89
2023-04-10T20:37:13.693Z,24.95
2023-04-10T20:42:20.981Z,24.97
2023-04-10T20:47:28.256Z,24.93
2023-04-10T20:52:35.455Z,24.95
2023-04-10T20:57:42.637Z,24.95
2023-04-10T21:02:50.158Z,24.92
2023-04-10T21:07:57.131Z,25.03
2023-04-10T21:13:04.290Z,25.02
2023-04-10T21:18:11.633Z,24.98
2023-04-10T21:23:18.891Z,25.00
2023-04-10T21:28:26.163Z,25.10
2023-04-10T21:33:33.391Z,25.12
2023-04-10T21:38:40.622Z,25.16
2023-04-10T21:43:47.800Z,25.14
2023-04-10T21:48:55.315Z,25.19
2023-04-10T21:54:02.268Z,25.19
2023-04-10T21:59:09.439Z,25.21
2023-04-10T22:04:16.819Z,25.19
2023-04-10T22:09:23.917Z,25.19
2023-04-10T22:14:31.134Z,25.18
2023-04-10T22:19:38.476Z,25.16
2023-04-10T22:24:45.688Z,25.21
2023-04-10T22:30:00.233Z,25.15
2023-04-10T22:35:00.288Z,25.15
2023-04-10T22:40:07.342Z,25.17
2023-04-10T22:45:14.604Z,25.15
2023-04-10T22:50:21.835Z,25.20
2023-04-10T22:55:29.002Z,25.13
2023-04-10T23:00:36.297Z,25.10
2023-04-10T23:05:43.597Z,25.19
2023-04-10T23:10:50.862Z,25.24
2023-04-10T23:15:58.304Z,25.28
2023-04-10T23:21:05.536Z,25.29
2023-04-10T23:26:12.773Z,25.27
2023-04-10T23:31:20.027Z,25.34
2023-04-10T23:36:27.225Z,25.33
2023-04-10T23:47:22.488Z,25.33
2023-04-10T23:53:09.745Z,25.33
2023-04-10T23:58:55.296Z,25.33
